Terminal Aerodrome Forecast
Issued by NWS Memphis, TN

Home | Current Version | Previous Version | Text Only | Print | Product List | Glossary On
Versions: 1 2 3 4 5 6 7 8 9 10 11 12 13 14 15 16 17
188
FTUS44 KMEG 281319 AAA
TAFJBR
TAF AMD
KJBR 281319Z 2813/0112 17012KT P6SM VCSH OVC004
     FM281500 19013G20KT P6SM VCSH OVC012
     FM281800 19016G24KT P6SM VCSH BKN020 OVC035
     FM282100 20016G24KT P6SM BKN035
     FM010200 20016G24KT P6SM VCTS SCT030CB BKN040 WS020/20050KT
     FM010600 21018G28KT P6SM VCTS BKN020CB OVC030 WS020/22050KT
     FM011100 22016G24KT P6SM SCT030 BKN100=

USA.gov is the U.S. government's official web portal to all federal, state and local government web resources and services.